sensor_id;sensor_type;location;lat;lon;timestamp;temperature;humidity
13992;DHT22;7070;53.586;9.692;2022-12-18T00:00:08;-5.10;84.30
13992;DHT22;7070;53.586;9.692;2022-12-18T00:02:35;-5.10;83.60
13992;DHT22;7070;53.586;9.692;2022-12-18T00:05:03;-5.10;83.60
13992;DHT22;7070;53.586;9.692;2022-12-18T00:07:29;-5.10;83.70
13992;DHT22;7070;53.586;9.692;2022-12-18T00:09:56;-5.00;84.70
13992;DHT22;7070;53.586;9.692;2022-12-18T00:12:25;-5.00;83.90
13992;DHT22;7070;53.586;9.692;2022-12-18T00:14:51;-5.10;83.90
13992;DHT22;7070;53.586;9.692;2022-12-18T00:17:18;-5.10;83.90
13992;DHT22;7070;53.586;9.692;2022-12-18T00:19:45;-5.00;84.00
13992;DHT22;7070;53.586;9.692;2022-12-18T00:22:12;-5.00;84.00
13992;DHT22;7070;53.586;9.692;2022-12-18T00:24:39;-5.00;84.00
13992;DHT22;7070;53.586;9.692;2022-12-18T00:27:05;-4.90;84.10
13992;DHT22;7070;53.586;9.692;2022-12-18T00:29:34;-5.00;83.90
13992;DHT22;7070;53.586;9.692;2022-12-18T00:32:01;-5.00;83.80
13992;DHT22;7070;53.586;9.692;2022-12-18T00:34:28;-4.90;83.90
13992;DHT22;7070;53.586;9.692;2022-12-18T00:36:54;-5.00;83.70
13992;DHT22;7070;53.586;9.692;2022-12-18T00:39:21;-5.00;83.50
13992;DHT22;7070;53.586;9.692;2022-12-18T00:41:48;-5.00;83.40
13992;DHT22;7070;53.586;9.692;2022-12-18T00:44:34;-5.00;83.50
13992;DHT22;7070;53.586;9.692;2022-12-18T00:47:01;-5.10;83.40
13992;DHT22;7070;53.586;9.692;2022-12-18T00:49:27;-5.10;83.40
13992;DHT22;7070;53.586;9.692;2022-12-18T00:51:54;-5.10;83.40
13992;DHT22;7070;53.586;9.692;2022-12-18T00:54:22;-5.10;83.40
13992;DHT22;7070;53.586;9.692;2022-12-18T00:56:49;-5.10;83.50
13992;DHT22;7070;53.586;9.692;2022-12-18T00:59:16;-5.10;83.40
13992;DHT22;7070;53.586;9.692;2022-12-18T01:01:44;-5.10;83.90
13992;DHT22;7070;53.586;9.692;2022-12-18T01:04:11;-5.10;83.40
13992;DHT22;7070;53.586;9.692;2022-12-18T01:06:38;-5.10;83.40
13992;DHT22;7070;53.586;9.692;2022-12-18T01:09:05;-5.10;83.50
13992;DHT22;7070;53.586;9.692;2022-12-18T01:11:32;-5.10;83.50
13992;DHT22;7070;53.586;9.692;2022-12-18T01:13:58;-5.20;83.40
13992;DHT22;7070;53.586;9.692;2022-12-18T01:16:25;-5.20;83.40
13992;DHT22;7070;53.586;9.692;2022-12-18T01:18:54;-5.20;83.40
13992;DHT22;7070;53.586;9.692;2022-12-18T01:21:21;-5.20;83.30
13992;DHT22;7070;53.586;9.692;2022-12-18T01:23:51;-5.20;83.30
13992;DHT22;7070;53.586;9.692;2022-12-18T01:26:18;-5.30;83.80
13992;DHT22;7070;53.586;9.692;2022-12-18T01:28:45;-5.20;83.30
13992;DHT22;7070;53.586;9.692;2022-12-18T01:31:14;-5.20;83.40
13992;DHT22;7070;53.586;9.692;2022-12-18T01:33:42;-5.30;83.40
13992;DHT22;7070;53.586;9.692;2022-12-18T01:36:15;-5.30;83.20
13992;DHT22;7070;53.586;9.692;2022-12-18T01:38:42;-5.30;83.40
13992;DHT22;7070;53.586;9.692;2022-12-18T01:41:09;-4.40;84.30
13992;DHT22;7070;53.586;9.692;2022-12-18T01:43:45;-5.20;83.50
13992;DHT22;7070;53.586;9.692;2022-12-18T01:46:12;-5.30;83.40
13992;DHT22;7070;53.586;9.692;2022-12-18T01:48:39;-5.20;83.50
13992;DHT22;7070;53.586;9.692;2022-12-18T01:51:07;-5.30;83.50
13992;DHT22;7070;53.586;9.692;2022-12-18T01:53:38;-5.30;83.50
13992;DHT22;7070;53.586;9.692;2022-12-18T01:56:06;-5.30;83.40
13992;DHT22;7070;53.586;9.692;2022-12-18T01:58:39;-5.20;83.50
13992;DHT22;7070;53.586;9.692;2022-12-18T02:01:08;-5.30;83.40
13992;DHT22;7070;53.586;9.692;2022-12-18T02:03:36;-5.30;83.30
13992;DHT22;7070;53.586;9.692;2022-12-18T02:06:07;-5.30;83.40
13992;DHT22;7070;53.586;9.692;2022-12-18T02:08:42;-5.30;83.30
13992;DHT22;7070;53.586;9.692;2022-12-18T02:11:16;-5.40;83.20
13992;DHT22;7070;53.586;9.692;2022-12-18T02:13:50;-5.30;83.30
13992;DHT22;7070;53.586;9.692;2022-12-18T02:16:23;-5.40;83.30
13992;DHT22;7070;53.586;9.692;2022-12-18T02:18:54;-5.40;83.20
13992;DHT22;7070;53.586;9.692;2022-12-18T02:21:30;-5.40;83.20
13992;DHT22;7070;53.586;9.692;2022-12-18T02:24:13;-5.40;83.10
13992;DHT22;7070;53.586;9.692;2022-12-18T02:26:46;-5.40;83.10
13992;DHT22;7070;53.586;9.692;2022-12-18T02:29:16;-5.50;83.00
13992;DHT22;7070;53.586;9.692;2022-12-18T02:31:47;-5.50;82.90
13992;DHT22;7070;53.586;9.692;2022-12-18T02:34:18;-5.50;82.90
13992;DHT22;7070;53.586;9.692;2022-12-18T02:36:46;-5.50;82.90
13992;DHT22;7070;53.586;9.692;2022-12-18T02:39:16;-5.60;82.90
13992;DHT22;7070;53.586;9.692;2022-12-18T02:41:45;-5.50;82.90
13992;DHT22;7070;53.586;9.692;2022-12-18T02:44:13;-5.60;82.90
13992;DHT22;7070;53.586;9.692;2022-12-18T02:46:43;-5.60;82.80
13992;DHT22;7070;53.586;9.692;2022-12-18T02:49:19;-5.60;82.90
13992;DHT22;7070;53.586;9.692;2022-12-18T02:51:52;-5.70;82.80
13992;DHT22;7070;53.586;9.692;2022-12-18T02:54:28;-5.70;82.80
13992;DHT22;7070;53.586;9.692;2022-12-18T02:57:06;-5.80;82.70
13992;DHT22;7070;53.586;9.692;2022-12-18T02:59:40;-5.70;82.80
13992;DHT22;7070;53.586;9.692;2022-12-18T03:02:17;-5.70;82.90
13992;DHT22;7070;53.586;9.692;2022-12-18T03:04:49;-5.70;82.90
13992;DHT22;7070;53.586;9.692;2022-12-18T03:07:23;-5.80;82.90
13992;DHT22;7070;53.586;9.692;2022-12-18T03:09:53;-5.80;83.00
13992;DHT22;7070;53.586;9.692;2022-12-18T03:12:30;-5.70;83.10
13992;DHT22;7070;53.586;9.692;2022-12-18T03:15:02;-5.80;83.00
13992;DHT22;7070;53.586;9.692;2022-12-18T03:17:31;-5.70;83.00
13992;DHT22;7070;53.586;9.692;2022-12-18T03:20:03;-5.80;83.00
13992;DHT22;7070;53.586;9.692;2022-12-18T03:22:33;-5.80;83.00
13992;DHT22;7070;53.586;9.692;2022-12-18T03:25:04;-5.80;83.00
13992;DHT22;7070;53.586;9.692;2022-12-18T03:27:37;-5.80;83.00
13992;DHT22;7070;53.586;9.692;2022-12-18T03:30:07;-5.70;83.80
13992;DHT22;7070;53.586;9.692;2022-12-18T03:32:39;-5.80;83.00
13992;DHT22;7070;53.586;9.692;2022-12-18T03:35:09;-5.80;82.90
13992;DHT22;7070;53.586;9.692;2022-12-18T03:37:39;-5.80;83.00
13992;DHT22;7070;53.586;9.692;2022-12-18T03:40:07;-5.80;83.00
13992;DHT22;7070;53.586;9.692;2022-12-18T03:42:42;-5.80;83.00
13992;DHT22;7070;53.586;9.692;2022-12-18T03:45:13;-5.70;83.10
13992;DHT22;7070;53.586;9.692;2022-12-18T03:47:46;-5.80;82.90
13992;DHT22;7070;53.586;9.692;2022-12-18T03:50:21;-5.80;83.00
13992;DHT22;7070;53.586;9.692;2022-12-18T03:52:51;-5.80;83.70
13992;DHT22;7070;53.586;9.692;2022-12-18T03:55:21;-5.80;83.00
13992;DHT22;7070;53.586;9.692;2022-12-18T03:57:52;-5.80;83.10
13992;DHT22;7070;53.586;9.692;2022-12-18T04:00:20;-5.70;83.20
13992;DHT22;7070;53.586;9.692;2022-12-18T04:02:51;-5.80;83.00
13992;DHT22;7070;53.586;9.692;2022-12-18T04:05:18;-5.80;83.00
13992;DHT22;7070;53.586;9.692;2022-12-18T04:07:47;-5.80;83.00
13992;DHT22;7070;53.586;9.692;2022-12-18T04:10:16;-5.80;83.00
13992;DHT22;7070;53.586;9.692;2022-12-18T04:12:43;-5.80;83.00
13992;DHT22;7070;53.586;9.692;2022-12-18T04:15:12;-5.70;83.00
13992;DHT22;7070;53.586;9.692;2022-12-18T04:17:41;-5.70;83.00
13992;DHT22;7070;53.586;9.692;2022-12-18T04:20:10;-5.80;82.90
13992;DHT22;7070;53.586;9.692;2022-12-18T04:22:37;-5.80;83.00
13992;DHT22;7070;53.586;9.692;2022-12-18T04:25:04;-5.80;82.80
13992;DHT22;7070;53.586;9.692;2022-12-18T04:27:31;-5.80;82.80
13992;DHT22;7070;53.586;9.692;2022-12-18T04:29:58;-5.80;82.80
13992;DHT22;7070;53.586;9.692;2022-12-18T04:32:26;-5.80;82.80
13992;DHT22;7070;53.586;9.692;2022-12-18T04:34:53;-5.90;82.70
13992;DHT22;7070;53.586;9.692;2022-12-18T04:37:20;-5.80;82.80
13992;DHT22;7070;53.586;9.692;2022-12-18T04:39:47;-5.80;82.80
13992;DHT22;7070;53.586;9.692;2022-12-18T04:42:13;-5.80;82.90
13992;DHT22;7070;53.586;9.692;2022-12-18T04:44:40;-5.80;82.80
13992;DHT22;7070;53.586;9.692;2022-12-18T04:47:07;-5.90;82.70
13992;DHT22;7070;53.586;9.692;2022-12-18T04:49:35;-5.80;82.90
13992;DHT22;7070;53.586;9.692;2022-12-18T04:52:02;-5.90;82.80
13992;DHT22;7070;53.586;9.692;2022-12-18T04:54:29;-5.90;82.80
13992;DHT22;7070;53.586;9.692;2022-12-18T04:56:56;-5.90;82.90
13992;DHT22;7070;53.586;9.692;2022-12-18T04:59:23;-5.80;82.90
13992;DHT22;7070;53.586;9.692;2022-12-18T05:01:49;-5.80;82.90
13992;DHT22;7070;53.586;9.692;2022-12-18T05:04:16;-5.80;82.90
13992;DHT22;7070;53.586;9.692;2022-12-18T05:06:44;-5.90;82.80
13992;DHT22;7070;53.586;9.692;2022-12-18T05:09:11;-5.80;82.90
13992;DHT22;7070;53.586;9.692;2022-12-18T05:11:38;-5.80;82.80
13992;DHT22;7070;53.586;9.692;2022-12-18T05:14:05;-5.90;82.80
13992;DHT22;7070;53.586;9.692;2022-12-18T05:16:32;-5.80;82.90
13992;DHT22;7070;53.586;9.692;2022-12-18T05:18:59;-5.80;82.90
13992;DHT22;7070;53.586;9.692;2022-12-18T05:21:26;-5.80;82.90
13992;DHT22;7070;53.586;9.692;2022-12-18T05:23:54;-5.90;82.70
13992;DHT22;7070;53.586;9.692;2022-12-18T05:26:21;-5.80;82.80
13992;DHT22;7070;53.586;9.692;2022-12-18T05:28:48;-5.80;82.80
13992;DHT22;7070;53.586;9.692;2022-12-18T05:31:14;-5.80;82.80
13992;DHT22;7070;53.586;9.692;2022-12-18T05:33:41;-5.80;82.80
13992;DHT22;7070;53.586;9.692;2022-12-18T05:36:09;-5.90;82.70
13992;DHT22;7070;53.586;9.692;2022-12-18T05:38:37;-5.90;82.60
13992;DHT22;7070;53.586;9.692;2022-12-18T05:41:07;-5.90;82.60
13992;DHT22;7070;53.586;9.692;2022-12-18T05:43:35;-5.90;82.60
13992;DHT22;7070;53.586;9.692;2022-12-18T05:46:06;-5.90;82.60
13992;DHT22;7070;53.586;9.692;2022-12-18T05:48:33;-6.00;82.40
13992;DHT22;7070;53.586;9.692;2022-12-18T05:51:05;-6.00;82.50
13992;DHT22;7070;53.586;9.692;2022-12-18T05:53:32;-6.00;82.50
13992;DHT22;7070;53.586;9.692;2022-12-18T05:56:00;-6.00;82.50
13992;DHT22;7070;53.586;9.692;2022-12-18T05:58:29;-6.00;82.40
13992;DHT22;7070;53.586;9.692;2022-12-18T06:00:57;-6.10;82.30
13992;DHT22;7070;53.586;9.692;2022-12-18T06:03:24;-6.10;82.40
13992;DHT22;7070;53.586;9.692;2022-12-18T06:05:51;-6.10;82.50
13992;DHT22;7070;53.586;9.692;2022-12-18T06:08:18;-6.10;82.50
13992;DHT22;7070;53.586;9.692;2022-12-18T06:10:50;-6.20;82.40
13992;DHT22;7070;53.586;9.692;2022-12-18T06:13:18;-6.10;82.40
13992;DHT22;7070;53.586;9.692;2022-12-18T06:15:47;-6.20;82.40
13992;DHT22;7070;53.586;9.692;2022-12-18T06:18:14;-6.30;82.30
13992;DHT22;7070;53.586;9.692;2022-12-18T06:20:41;-6.20;82.50
13992;DHT22;7070;53.586;9.692;2022-12-18T06:23:08;-6.30;82.40
13992;DHT22;7070;53.586;9.692;2022-12-18T06:25:38;-6.30;82.40
13992;DHT22;7070;53.586;9.692;2022-12-18T06:28:05;-6.20;82.60
13992;DHT22;7070;53.586;9.692;2022-12-18T06:30:32;-6.20;82.70
13992;DHT22;7070;53.586;9.692;2022-12-18T06:33:00;-6.30;82.60
13992;DHT22;7070;53.586;9.692;2022-12-18T06:35:27;-6.20;82.70
13992;DHT22;7070;53.586;9.692;2022-12-18T06:37:54;-6.30;82.60
13992;DHT22;7070;53.586;9.692;2022-12-18T06:40:20;-6.20;83.50
13992;DHT22;7070;53.586;9.692;2022-12-18T06:42:47;-6.20;83.50
13992;DHT22;7070;53.586;9.692;2022-12-18T06:45:16;-6.20;82.80
13992;DHT22;7070;53.586;9.692;2022-12-18T06:47:43;-6.20;82.90
13992;DHT22;7070;53.586;9.692;2022-12-18T06:50:11;-6.20;82.80
13992;DHT22;7070;53.586;9.692;2022-12-18T06:52:38;-6.20;82.70
13992;DHT22;7070;53.586;9.692;2022-12-18T06:55:10;-6.20;82.80
13992;DHT22;7070;53.586;9.692;2022-12-18T06:57:37;-6.20;82.70
13992;DHT22;7070;53.586;9.692;2022-12-18T07:00:06;-6.10;82.80
13992;DHT22;7070;53.586;9.692;2022-12-18T07:02:33;-6.20;82.80
13992;DHT22;7070;53.586;9.692;2022-12-18T07:05:01;-6.10;82.90
13992;DHT22;7070;53.586;9.692;2022-12-18T07:07:29;-6.10;82.90
13992;DHT22;7070;53.586;9.692;2022-12-18T07:09:56;-6.10;82.90
13992;DHT22;7070;53.586;9.692;2022-12-18T07:12:23;-6.10;82.80
13992;DHT22;7070;53.586;9.692;2022-12-18T07:14:49;-6.10;82.80
13992;DHT22;7070;53.586;9.692;2022-12-18T07:17:16;-6.10;82.80
13992;DHT22;7070;53.586;9.692;2022-12-18T07:19:43;-6.10;83.50
13992;DHT22;7070;53.586;9.692;2022-12-18T07:22:10;-6.10;82.90
13992;DHT22;7070;53.586;9.692;2022-12-18T07:24:38;-6.10;82.90
13992;DHT22;7070;53.586;9.692;2022-12-18T07:27:05;-6.10;82.90
13992;DHT22;7070;53.586;9.692;2022-12-18T07:29:32;-6.10;82.70
13992;DHT22;7070;53.586;9.692;2022-12-18T07:31:59;-6.00;82.90
13992;DHT22;7070;53.586;9.692;2022-12-18T07:34:26;-6.10;82.80
13992;DHT22;7070;53.586;9.692;2022-12-18T07:36:52;-6.10;82.80
13992;DHT22;7070;53.586;9.692;2022-12-18T07:39:19;-6.10;82.80
13992;DHT22;7070;53.586;9.692;2022-12-18T07:41:47;-6.00;82.90
13992;DHT22;7070;53.586;9.692;2022-12-18T07:44:34;-6.00;83.70
13992;DHT22;7070;53.586;9.692;2022-12-18T07:47:01;-6.00;83.00
13992;DHT22;7070;53.586;9.692;2022-12-18T07:49:28;-6.00;83.00
13992;DHT22;7070;53.586;9.692;2022-12-18T07:51:56;-6.00;83.00
13992;DHT22;7070;53.586;9.692;2022-12-18T07:54:24;-5.90;83.20
13992;DHT22;7070;53.586;9.692;2022-12-18T07:56:53;-5.80;83.20
13992;DHT22;7070;53.586;9.692;2022-12-18T07:59:19;-5.90;83.10
13992;DHT22;7070;53.586;9.692;2022-12-18T08:01:46;-5.80;83.20
13992;DHT22;7070;53.586;9.692;2022-12-18T08:04:13;-5.80;83.20
13992;DHT22;7070;53.586;9.692;2022-12-18T08:06:40;-5.80;83.20
13992;DHT22;7070;53.586;9.692;2022-12-18T08:09:07;-5.70;83.30
13992;DHT22;7070;53.586;9.692;2022-12-18T08:11:34;-5.70;83.40
13992;DHT22;7070;53.586;9.692;2022-12-18T08:14:02;-5.70;83.20
13992;DHT22;7070;53.586;9.692;2022-12-18T08:16:29;-5.60;83.30
13992;DHT22;7070;53.586;9.692;2022-12-18T08:18:56;-5.50;83.50
13992;DHT22;7070;53.586;9.692;2022-12-18T08:21:24;-5.50;83.50
13992;DHT22;7070;53.586;9.692;2022-12-18T08:23:53;-5.50;83.50
13992;DHT22;7070;53.586;9.692;2022-12-18T08:26:20;-5.40;83.50
13992;DHT22;7070;53.586;9.692;2022-12-18T08:28:48;-5.40;83.60
13992;DHT22;7070;53.586;9.692;2022-12-18T08:31:17;-5.30;83.70
13992;DHT22;7070;53.586;9.692;2022-12-18T08:33:44;-5.20;84.50
13992;DHT22;7070;53.586;9.692;2022-12-18T08:36:11;-5.20;83.80
13992;DHT22;7070;53.586;9.692;2022-12-18T08:38:38;-5.10;83.90
13992;DHT22;7070;53.586;9.692;2022-12-18T08:41:06;-5.10;83.80
13992;DHT22;7070;53.586;9.692;2022-12-18T08:43:34;-5.00;84.00
13992;DHT22;7070;53.586;9.692;2022-12-18T08:46:21;-4.90;84.00
13992;DHT22;7070;53.586;9.692;2022-12-18T08:48:51;-4.80;84.00
13992;DHT22;7070;53.586;9.692;2022-12-18T08:51:19;-4.80;83.90
13992;DHT22;7070;53.586;9.692;2022-12-18T08:53:46;-4.70;84.10
13992;DHT22;7070;53.586;9.692;2022-12-18T08:56:14;-4.70;83.90
13992;DHT22;7070;53.586;9.692;2022-12-18T08:58:41;-4.60;84.10
13992;DHT22;7070;53.586;9.692;2022-12-18T09:01:10;-4.60;84.00
13992;DHT22;7070;53.586;9.692;2022-12-18T09:03:38;-4.50;84.00
13992;DHT22;7070;53.586;9.692;2022-12-18T09:06:06;-4.50;84.00
13992;DHT22;7070;53.586;9.692;2022-12-18T09:08:36;-4.40;84.00
13992;DHT22;7070;53.586;9.692;2022-12-18T09:11:03;-4.40;84.00
13992;DHT22;7070;53.586;9.692;2022-12-18T09:13:30;-4.30;84.00
13992;DHT22;7070;53.586;9.692;2022-12-18T09:15:57;-4.20;84.20
13992;DHT22;7070;53.586;9.692;2022-12-18T09:18:24;-4.20;84.10
13992;DHT22;7070;53.586;9.692;2022-12-18T09:20:52;-4.10;84.20
13992;DHT22;7070;53.586;9.692;2022-12-18T09:23:20;-4.10;84.20
13992;DHT22;7070;53.586;9.692;2022-12-18T09:25:47;-3.90;85.10
13992;DHT22;7070;53.586;9.692;2022-12-18T09:28:18;-3.90;84.40
13992;DHT22;7070;53.586;9.692;2022-12-18T09:30:46;-3.80;84.40
13992;DHT22;7070;53.586;9.692;2022-12-18T09:33:14;-3.70;84.50
13992;DHT22;7070;53.586;9.692;2022-12-18T09:35:42;-3.60;84.60
13992;DHT22;7070;53.586;9.692;2022-12-18T09:38:12;-3.60;85.30
13992;DHT22;7070;53.586;9.692;2022-12-18T09:40:42;-3.60;84.50
13992;DHT22;7070;53.586;9.692;2022-12-18T09:43:14;-3.40;84.70
13992;DHT22;7070;53.586;9.692;2022-12-18T09:45:45;-3.30;84.80
13992;DHT22;7070;53.586;9.692;2022-12-18T09:48:18;-3.20;85.00
13992;DHT22;7070;53.586;9.692;2022-12-18T09:50:46;-3.20;84.90
13992;DHT22;7070;53.586;9.692;2022-12-18T09:53:19;-3.10;84.90
13992;DHT22;7070;53.586;9.692;2022-12-18T09:55:47;-3.00;84.80
13992;DHT22;7070;53.586;9.692;2022-12-18T09:58:19;-2.90;85.60
13992;DHT22;7070;53.586;9.692;2022-12-18T10:00:47;-2.90;84.80
13992;DHT22;7070;53.586;9.692;2022-12-18T10:03:15;-2.80;84.90
13992;DHT22;7070;53.586;9.692;2022-12-18T10:05:47;-2.70;85.00
13992;DHT22;7070;53.586;9.692;2022-12-18T10:08:24;-2.60;85.20
13992;DHT22;7070;53.586;9.692;2022-12-18T10:10:57;-2.50;85.30
13992;DHT22;7070;53.586;9.692;2022-12-18T10:13:34;-2.40;85.20
13992;DHT22;7070;53.586;9.692;2022-12-18T10:16:11;-2.30;85.30
13992;DHT22;7070;53.586;9.692;2022-12-18T10:19:08;-2.30;85.20
13992;DHT22;7070;53.586;9.692;2022-12-18T10:21:45;-2.20;85.20
13992;DHT22;7070;53.586;9.692;2022-12-18T10:24:24;-2.10;85.30
13992;DHT22;7070;53.586;9.692;2022-12-18T10:26:56;-2.00;85.30
13992;DHT22;7070;53.586;9.692;2022-12-18T10:29:27;-1.90;85.30
13992;DHT22;7070;53.586;9.692;2022-12-18T10:31:54;-1.90;85.30
13992;DHT22;7070;53.586;9.692;2022-12-18T10:34:20;-1.80;85.30
13992;DHT22;7070;53.586;9.692;2022-12-18T10:36:47;-1.80;85.20
13992;DHT22;7070;53.586;9.692;2022-12-18T10:39:18;-1.80;85.30
13992;DHT22;7070;53.586;9.692;2022-12-18T10:41:45;-1.70;85.30
13992;DHT22;7070;53.586;9.692;2022-12-18T10:44:18;-1.60;85.40
13992;DHT22;7070;53.586;9.692;2022-12-18T10:46:46;-1.60;85.40
13992;DHT22;7070;53.586;9.692;2022-12-18T10:49:24;-1.50;85.50
13992;DHT22;7070;53.586;9.692;2022-12-18T10:52:03;-1.40;85.60
13992;DHT22;7070;53.586;9.692;2022-12-18T10:54:32;-1.40;85.60
13992;DHT22;7070;53.586;9.692;2022-12-18T10:57:15;-1.20;85.80
13992;DHT22;7070;53.586;9.692;2022-12-18T10:59:51;-1.10;85.90
13992;DHT22;7070;53.586;9.692;2022-12-18T11:02:28;-1.00;85.90
13992;DHT22;7070;53.586;9.692;2022-12-18T11:04:55;-0.90;85.80
13992;DHT22;7070;53.586;9.692;2022-12-18T11:07:21;-0.90;85.70
13992;DHT22;7070;53.586;9.692;2022-12-18T11:10:03;-0.80;85.70
13992;DHT22;7070;53.586;9.692;2022-12-18T11:12:30;-0.80;85.50
13992;DHT22;7070;53.586;9.692;2022-12-18T11:14:57;-0.70;85.60
13992;DHT22;7070;53.586;9.692;2022-12-18T11:17:28;-0.70;85.40
13992;DHT22;7070;53.586;9.692;2022-12-18T11:19:56;-0.60;85.60
13992;DHT22;7070;53.586;9.692;2022-12-18T11:22:25;-0.70;85.40
13992;DHT22;7070;53.586;9.692;2022-12-18T11:24:57;-0.60;85.50
13992;DHT22;7070;53.586;9.692;2022-12-18T11:27:25;-0.60;85.40
13992;DHT22;7070;53.586;9.692;2022-12-18T11:29:52;-0.60;85.50
13992;DHT22;7070;53.586;9.692;2022-12-18T11:32:31;-0.60;85.40
13992;DHT22;7070;53.586;9.692;2022-12-18T11:35:14;-0.50;85.50
13992;DHT22;7070;53.586;9.692;2022-12-18T11:37:46;-0.50;85.50
13992;DHT22;7070;53.586;9.692;2022-12-18T11:40:18;-0.50;85.50
13992;DHT22;7070;53.586;9.692;2022-12-18T11:42:51;-0.50;85.50
13992;DHT22;7070;53.586;9.692;2022-12-18T11:45:26;-0.50;85.60
13992;DHT22;7070;53.586;9.692;2022-12-18T11:47:58;-0.40;85.80
13992;DHT22;7070;53.586;9.692;2022-12-18T11:50:33;-0.40;85.80
13992;DHT22;7070;53.586;9.692;2022-12-18T11:53:10;-0.30;85.80
13992;DHT22;7070;53.586;9.692;2022-12-18T11:55:44;-0.40;85.70
13992;DHT22;7070;53.586;9.692;2022-12-18T11:58:18;-0.30;85.80
13992;DHT22;7070;53.586;9.692;2022-12-18T12:00:52;-0.20;85.80
13992;DHT22;7070;53.586;9.692;2022-12-18T12:03:45;-0.20;85.80
13992;DHT22;7070;53.586;9.692;2022-12-18T12:06:20;-0.20;85.80
13992;DHT22;7070;53.586;9.692;2022-12-18T12:09:04;-0.10;86.00
13992;DHT22;7070;53.586;9.692;2022-12-18T12:11:44;-0.20;85.90
13992;DHT22;7070;53.586;9.692;2022-12-18T12:14:28;-0.10;86.10
13992;DHT22;7070;53.586;9.692;2022-12-18T12:17:01;-0.10;86.00
13992;DHT22;7070;53.586;9.692;2022-12-18T12:19:38;0.00;86.20
13992;DHT22;7070;53.586;9.692;2022-12-18T12:22:13;0.00;86.30
13992;DHT22;7070;53.586;9.692;2022-12-18T12:24:56;0.10;86.30
13992;DHT22;7070;53.586;9.692;2022-12-18T12:27:34;0.10;86.40
13992;DHT22;7070;53.586;9.692;2022-12-18T12:30:07;0.20;86.40
13992;DHT22;7070;53.586;9.692;2022-12-18T12:32:46;0.20;86.40
13992;DHT22;7070;53.586;9.692;2022-12-18T12:35:26;0.30;86.50
13992;DHT22;7070;53.586;9.692;2022-12-18T12:38:03;0.20;86.30
13992;DHT22;7070;53.586;9.692;2022-12-18T12:40:34;0.30;86.50
13992;DHT22;7070;53.586;9.692;2022-12-18T12:43:10;0.40;86.60
13992;DHT22;7070;53.586;9.692;2022-12-18T12:45:44;0.40;86.50
13992;DHT22;7070;53.586;9.692;2022-12-18T12:48:19;0.50;86.60
13992;DHT22;7070;53.586;9.692;2022-12-18T12:50:48;0.50;86.40
13992;DHT22;7070;53.586;9.692;2022-12-18T12:53:23;0.50;86.50
13992;DHT22;7070;53.586;9.692;2022-12-18T12:55:52;0.50;86.50
13992;DHT22;7070;53.586;9.692;2022-12-18T12:58:28;0.50;86.50
13992;DHT22;7070;53.586;9.692;2022-12-18T13:01:05;0.50;86.40
13992;DHT22;7070;53.586;9.692;2022-12-18T13:03:46;0.60;86.40
13992;DHT22;7070;53.586;9.692;2022-12-18T13:06:19;0.60;87.30
13992;DHT22;7070;53.586;9.692;2022-12-18T13:08:56;0.70;86.60
13992;DHT22;7070;53.586;9.692;2022-12-18T13:11:36;0.70;86.50
13992;DHT22;7070;53.586;9.692;2022-12-18T13:14:26;0.70;86.50
13992;DHT22;7070;53.586;9.692;2022-12-18T13:17:26;0.80;87.30
13992;DHT22;7070;53.586;9.692;2022-12-18T13:20:05;0.70;86.40
13992;DHT22;7070;53.586;9.692;2022-12-18T13:22:35;0.70;86.00
13992;DHT22;7070;53.586;9.692;2022-12-18T13:25:04;0.70;85.90
13992;DHT22;7070;53.586;9.692;2022-12-18T13:28:03;0.70;85.80
13992;DHT22;7070;53.586;9.692;2022-12-18T13:30:53;0.60;85.60
13992;DHT22;7070;53.586;9.692;2022-12-18T13:33:41;0.50;85.50
13992;DHT22;7070;53.586;9.692;2022-12-18T13:36:25;0.40;86.20
13992;DHT22;7070;53.586;9.692;2022-12-18T13:41:53;0.30;85.50
13992;DHT22;7070;53.586;9.692;2022-12-18T13:44:32;0.20;85.40
13992;DHT22;7070;53.586;9.692;2022-12-18T13:47:03;0.20;85.50
13992;DHT22;7070;53.586;9.692;2022-12-18T13:49:36;0.20;85.70
13992;DHT22;7070;53.586;9.692;2022-12-18T13:52:16;0.00;85.50
13992;DHT22;7070;53.586;9.692;2022-12-18T13:54:47;0.10;85.60
13992;DHT22;7070;53.586;9.692;2022-12-18T13:57:26;0.00;85.50
13992;DHT22;7070;53.586;9.692;2022-12-18T13:59:53;-0.10;86.30
13992;DHT22;7070;53.586;9.692;2022-12-18T14:02:23;-0.10;85.70
13992;DHT22;7070;53.586;9.692;2022-12-18T14:04:51;-0.10;85.80
13992;DHT22;7070;53.586;9.692;2022-12-18T14:07:20;-0.20;85.80
13992;DHT22;7070;53.586;9.692;2022-12-18T14:09:50;-0.20;85.80
13992;DHT22;7070;53.586;9.692;2022-12-18T14:12:21;-0.30;85.60
13992;DHT22;7070;53.586;9.692;2022-12-18T14:15:09;-0.30;85.60
13992;DHT22;7070;53.586;9.692;2022-12-18T14:17:43;-0.40;85.50
13992;DHT22;7070;53.586;9.692;2022-12-18T14:20:13;-0.50;85.50
13992;DHT22;7070;53.586;9.692;2022-12-18T14:22:43;-0.50;85.40
13992;DHT22;7070;53.586;9.692;2022-12-18T14:25:18;-0.60;85.30
13992;DHT22;7070;53.586;9.692;2022-12-18T14:27:48;-0.60;85.30
13992;DHT22;7070;53.586;9.692;2022-12-18T14:30:30;-1.30;84.70
13992;DHT22;7070;53.586;9.692;2022-12-18T14:33:03;-0.70;85.30
13992;DHT22;7070;53.586;9.692;2022-12-18T14:35:30;-0.80;85.30
13992;DHT22;7070;53.586;9.692;2022-12-18T14:38:23;-0.90;85.30
13992;DHT22;7070;53.586;9.692;2022-12-18T14:40:53;-0.90;85.50
13992;DHT22;7070;53.586;9.692;2022-12-18T14:43:20;-0.90;85.50
13992;DHT22;7070;53.586;9.692;2022-12-18T14:45:48;-1.00;85.50
13992;DHT22;7070;53.586;9.692;2022-12-18T14:48:18;-1.10;85.30
13992;DHT22;7070;53.586;9.692;2022-12-18T14:50:54;-1.20;85.30
13992;DHT22;7070;53.586;9.692;2022-12-18T14:53:28;-1.20;85.20
13992;DHT22;7070;53.586;9.692;2022-12-18T14:55:58;-1.30;85.20
13992;DHT22;7070;53.586;9.692;2022-12-18T14:58:25;-1.30;85.20
13992;DHT22;7070;53.586;9.692;2022-12-18T15:00:52;-1.40;85.10
13992;DHT22;7070;53.586;9.692;2022-12-18T15:03:21;-1.50;85.10
13992;DHT22;7070;53.586;9.692;2022-12-18T15:05:48;-1.50;85.10
13992;DHT22;7070;53.586;9.692;2022-12-18T15:08:29;-1.50;85.00
13992;DHT22;7070;53.586;9.692;2022-12-18T15:10:56;-1.70;84.90
13992;DHT22;7070;53.586;9.692;2022-12-18T15:13:23;-1.70;84.90
13992;DHT22;7070;53.586;9.692;2022-12-18T15:15:51;-1.70;84.90
13992;DHT22;7070;53.586;9.692;2022-12-18T15:18:23;-1.80;84.90
13992;DHT22;7070;53.586;9.692;2022-12-18T15:20:51;-1.80;84.90
13992;DHT22;7070;53.586;9.692;2022-12-18T15:23:20;-1.90;84.90
13992;DHT22;7070;53.586;9.692;2022-12-18T15:25:49;-2.00;84.90
13992;DHT22;7070;53.586;9.692;2022-12-18T15:28:23;-1.90;85.00
13992;DHT22;7070;53.586;9.692;2022-12-18T15:31:05;-2.00;85.20
13992;DHT22;7070;53.586;9.692;2022-12-18T15:33:35;-2.00;85.40
13992;DHT22;7070;53.586;9.692;2022-12-18T15:36:04;-2.10;85.40
13992;DHT22;7070;53.586;9.692;2022-12-18T15:38:32;-2.10;85.60
13992;DHT22;7070;53.586;9.692;2022-12-18T15:40:59;-2.00;85.90
13992;DHT22;7070;53.586;9.692;2022-12-18T15:43:29;-2.00;86.00
13992;DHT22;7070;53.586;9.692;2022-12-18T15:46:02;-2.00;86.00
13992;DHT22;7070;53.586;9.692;2022-12-18T15:48:31;-2.00;86.00
13992;DHT22;7070;53.586;9.692;2022-12-18T15:51:00;-1.90;86.00
13992;DHT22;7070;53.586;9.692;2022-12-18T15:53:30;-1.90;86.10
13992;DHT22;7070;53.586;9.692;2022-12-18T15:55:58;-1.80;86.30
13992;DHT22;7070;53.586;9.692;2022-12-18T15:58:42;-1.80;86.30
13992;DHT22;7070;53.586;9.692;2022-12-18T16:01:09;-1.80;86.30
13992;DHT22;7070;53.586;9.692;2022-12-18T16:03:37;-1.80;86.40
13992;DHT22;7070;53.586;9.692;2022-12-18T16:06:05;-1.70;86.40
13992;DHT22;7070;53.586;9.692;2022-12-18T16:08:32;-1.70;86.40
13992;DHT22;7070;53.586;9.692;2022-12-18T16:11:00;-1.60;86.40